sensor_id;sensor_type;location;lat;lon;timestamp;temperature;humidity
58339;DHT22;48278;52.704;6.536;2022-10-16T00:01:35;12.50;99.90
58339;DHT22;48278;52.704;6.536;2022-10-16T00:04:01;12.50;99.90
58339;DHT22;48278;52.704;6.536;2022-10-16T00:06:28;12.60;99.90
58339;DHT22;48278;52.704;6.536;2022-10-16T00:08:54;12.50;99.90
58339;DHT22;48278;52.704;6.536;2022-10-16T00:11:26;12.50;99.90
58339;DHT22;48278;52.704;6.536;2022-10-16T00:13:56;12.50;99.90
58339;DHT22;48278;52.704;6.536;2022-10-16T00:16:22;12.50;99.90
58339;DHT22;48278;52.704;6.536;2022-10-16T00:18:48;12.50;99.90
58339;DHT22;48278;52.704;6.536;2022-10-16T00:21:16;12.50;99.90
58339;DHT22;48278;52.704;6.536;2022-10-16T00:23:42;12.40;99.90
58339;DHT22;48278;52.704;6.536;2022-10-16T00:26:11;12.40;99.90
58339;DHT22;48278;52.704;6.536;2022-10-16T00:28:37;12.30;99.90
58339;DHT22;48278;52.704;6.536;2022-10-16T00:31:08;12.30;99.90
58339;DHT22;48278;52.704;6.536;2022-10-16T00:33:35;12.30;99.90
58339;DHT22;48278;52.704;6.536;2022-10-16T00:36:02;12.20;99.90
58339;DHT22;48278;52.704;6.536;2022-10-16T00:38:28;12.20;99.90
58339;DHT22;48278;52.704;6.536;2022-10-16T00:40:54;12.20;99.90
58339;DHT22;48278;52.704;6.536;2022-10-16T00:43:39;12.20;99.90
58339;DHT22;48278;52.704;6.536;2022-10-16T00:48:40;12.10;99.90
58339;DHT22;48278;52.704;6.536;2022-10-16T00:51:07;12.10;99.90
58339;DHT22;48278;52.704;6.536;2022-10-16T00:53:34;12.10;99.90
58339;DHT22;48278;52.704;6.536;2022-10-16T00:56:01;12.00;99.90
58339;DHT22;48278;52.704;6.536;2022-10-16T00:58:27;12.00;99.90
58339;DHT22;48278;52.704;6.536;2022-10-16T01:00:52;12.00;99.90
58339;DHT22;48278;52.704;6.536;2022-10-16T01:14:08;12.00;99.90
58339;DHT22;48278;52.704;6.536;2022-10-16T01:16:55;12.00;99.90
58339;DHT22;48278;52.704;6.536;2022-10-16T01:22:01;12.00;99.90
58339;DHT22;48278;52.704;6.536;2022-10-16T01:24:44;12.10;99.90
58339;DHT22;48278;52.704;6.536;2022-10-16T01:27:30;12.10;99.90
58339;DHT22;48278;52.704;6.536;2022-10-16T01:30:25;12.10;99.90
58339;DHT22;48278;52.704;6.536;2022-10-16T01:33:04;12.10;99.90
58339;DHT22;48278;52.704;6.536;2022-10-16T01:35:43;12.10;99.90
58339;DHT22;48278;52.704;6.536;2022-10-16T01:38:33;12.10;99.90
58339;DHT22;48278;52.704;6.536;2022-10-16T01:41:03;12.10;99.90
58339;DHT22;48278;52.704;6.536;2022-10-16T01:43:37;12.10;99.90
58339;DHT22;48278;52.704;6.536;2022-10-16T01:46:05;12.10;99.90
58339;DHT22;48278;52.704;6.536;2022-10-16T01:48:31;12.30;99.90
58339;DHT22;48278;52.704;6.536;2022-10-16T01:51:05;12.20;99.90
58339;DHT22;48278;52.704;6.536;2022-10-16T01:53:32;12.30;99.90
58339;DHT22;48278;52.704;6.536;2022-10-16T01:55:59;12.30;99.90
58339;DHT22;48278;52.704;6.536;2022-10-16T01:58:27;12.30;99.90
58339;DHT22;48278;52.704;6.536;2022-10-16T02:00:56;12.40;99.90
58339;DHT22;48278;52.704;6.536;2022-10-16T02:03:22;12.40;99.90
58339;DHT22;48278;52.704;6.536;2022-10-16T02:05:53;12.40;99.90
58339;DHT22;48278;52.704;6.536;2022-10-16T02:08:21;12.40;99.90
58339;DHT22;48278;52.704;6.536;2022-10-16T02:10:48;12.40;99.90
58339;DHT22;48278;52.704;6.536;2022-10-16T02:13:28;12.40;99.90
58339;DHT22;48278;52.704;6.536;2022-10-16T02:15:55;12.40;99.90
58339;DHT22;48278;52.704;6.536;2022-10-16T02:18:21;12.50;99.90
58339;DHT22;48278;52.704;6.536;2022-10-16T02:23:51;12.50;99.90
58339;DHT22;48278;52.704;6.536;2022-10-16T02:26:30;12.50;99.90
58339;DHT22;48278;52.704;6.536;2022-10-16T02:29:03;12.50;99.90
58339;DHT22;48278;52.704;6.536;2022-10-16T02:31:33;12.50;99.90
58339;DHT22;48278;52.704;6.536;2022-10-16T02:34:02;12.60;99.90
58339;DHT22;48278;52.704;6.536;2022-10-16T02:36:31;12.70;99.90
58339;DHT22;48278;52.704;6.536;2022-10-16T02:38:58;12.60;99.90
58339;DHT22;48278;52.704;6.536;2022-10-16T02:41:25;12.70;99.90
58339;DHT22;48278;52.704;6.536;2022-10-16T02:43:51;12.70;99.90
58339;DHT22;48278;52.704;6.536;2022-10-16T02:46:17;12.80;99.90
58339;DHT22;48278;52.704;6.536;2022-10-16T02:48:43;12.80;99.90
58339;DHT22;48278;52.704;6.536;2022-10-16T02:51:09;12.90;99.90
58339;DHT22;48278;52.704;6.536;2022-10-16T02:53:35;12.90;99.90
58339;DHT22;48278;52.704;6.536;2022-10-16T02:56:01;12.90;99.90
58339;DHT22;48278;52.704;6.536;2022-10-16T02:58:26;12.90;99.90
58339;DHT22;48278;52.704;6.536;2022-10-16T03:00:52;12.90;99.90
58339;DHT22;48278;52.704;6.536;2022-10-16T03:03:18;13.00;99.90
58339;DHT22;48278;52.704;6.536;2022-10-16T03:05:44;12.90;99.90
58339;DHT22;48278;52.704;6.536;2022-10-16T03:08:12;13.00;99.90
58339;DHT22;48278;52.704;6.536;2022-10-16T03:10:38;13.00;99.90
58339;DHT22;48278;52.704;6.536;2022-10-16T03:13:04;13.00;99.90
58339;DHT22;48278;52.704;6.536;2022-10-16T03:15:30;13.00;99.90
58339;DHT22;48278;52.704;6.536;2022-10-16T03:17:58;13.00;99.90
58339;DHT22;48278;52.704;6.536;2022-10-16T03:20:24;13.00;99.90
58339;DHT22;48278;52.704;6.536;2022-10-16T03:22:50;13.00;99.90
58339;DHT22;48278;52.704;6.536;2022-10-16T03:25:16;13.00;99.90
58339;DHT22;48278;52.704;6.536;2022-10-16T03:27:41;12.90;99.90
58339;DHT22;48278;52.704;6.536;2022-10-16T03:30:08;13.00;99.90
58339;DHT22;48278;52.704;6.536;2022-10-16T03:32:33;12.90;99.90
58339;DHT22;48278;52.704;6.536;2022-10-16T03:34:59;12.90;99.90
58339;DHT22;48278;52.704;6.536;2022-10-16T03:37:25;12.90;99.90
58339;DHT22;48278;52.704;6.536;2022-10-16T03:39:51;12.90;99.90
58339;DHT22;48278;52.704;6.536;2022-10-16T03:42:16;12.90;99.90
58339;DHT22;48278;52.704;6.536;2022-10-16T03:44:42;12.90;99.90
58339;DHT22;48278;52.704;6.536;2022-10-16T03:47:08;12.90;99.90
58339;DHT22;48278;52.704;6.536;2022-10-16T03:49:34;12.90;99.90
58339;DHT22;48278;52.704;6.536;2022-10-16T03:51:59;12.90;99.90
58339;DHT22;48278;52.704;6.536;2022-10-16T03:54:25;12.80;99.90
58339;DHT22;48278;52.704;6.536;2022-10-16T03:56:51;12.80;99.90
58339;DHT22;48278;52.704;6.536;2022-10-16T03:59:17;12.80;99.90
58339;DHT22;48278;52.704;6.536;2022-10-16T04:01:42;12.70;99.90
58339;DHT22;48278;52.704;6.536;2022-10-16T04:04:08;12.60;99.90
58339;DHT22;48278;52.704;6.536;2022-10-16T04:06:34;12.60;99.90
58339;DHT22;48278;52.704;6.536;2022-10-16T04:08:59;12.60;99.90
58339;DHT22;48278;52.704;6.536;2022-10-16T04:11:25;12.50;99.90
58339;DHT22;48278;52.704;6.536;2022-10-16T04:13:51;12.50;99.90
58339;DHT22;48278;52.704;6.536;2022-10-16T04:16:16;12.40;99.90
58339;DHT22;48278;52.704;6.536;2022-10-16T04:18:42;12.40;99.90
58339;DHT22;48278;52.704;6.536;2022-10-16T04:21:08;12.40;99.90
58339;DHT22;48278;52.704;6.536;2022-10-16T04:23:34;12.40;99.90
58339;DHT22;48278;52.704;6.536;2022-10-16T04:26:00;12.30;99.90
58339;DHT22;48278;52.704;6.536;2022-10-16T04:28:26;12.30;99.90
58339;DHT22;48278;52.704;6.536;2022-10-16T04:30:52;12.30;99.90
58339;DHT22;48278;52.704;6.536;2022-10-16T04:33:18;12.30;99.90
58339;DHT22;48278;52.704;6.536;2022-10-16T04:35:43;12.30;99.90
58339;DHT22;48278;52.704;6.536;2022-10-16T04:38:09;12.30;99.90
58339;DHT22;48278;52.704;6.536;2022-10-16T04:40:35;12.30;99.90
58339;DHT22;48278;52.704;6.536;2022-10-16T04:43:04;12.30;99.90
58339;DHT22;48278;52.704;6.536;2022-10-16T04:45:30;12.40;99.90
58339;DHT22;48278;52.704;6.536;2022-10-16T04:47:59;12.40;99.90
58339;DHT22;48278;52.704;6.536;2022-10-16T04:50:25;12.30;99.90
58339;DHT22;48278;52.704;6.536;2022-10-16T04:52:51;12.40;99.90
58339;DHT22;48278;52.704;6.536;2022-10-16T04:55:17;12.30;99.90
58339;DHT22;48278;52.704;6.536;2022-10-16T04:57:42;12.30;99.90
58339;DHT22;48278;52.704;6.536;2022-10-16T05:00:08;12.40;99.90
58339;DHT22;48278;52.704;6.536;2022-10-16T05:02:34;12.40;99.90
58339;DHT22;48278;52.704;6.536;2022-10-16T05:05:00;12.30;99.90
58339;DHT22;48278;52.704;6.536;2022-10-16T05:07:26;12.30;99.90
58339;DHT22;48278;52.704;6.536;2022-10-16T05:09:51;12.20;99.90
58339;DHT22;48278;52.704;6.536;2022-10-16T05:12:17;12.20;99.90
58339;DHT22;48278;52.704;6.536;2022-10-16T05:14:43;12.20;99.90
58339;DHT22;48278;52.704;6.536;2022-10-16T05:17:09;12.10;99.90
58339;DHT22;48278;52.704;6.536;2022-10-16T05:19:34;12.10;99.90
58339;DHT22;48278;52.704;6.536;2022-10-16T05:22:00;12.10;99.90
58339;DHT22;48278;52.704;6.536;2022-10-16T05:24:26;12.10;99.90
58339;DHT22;48278;52.704;6.536;2022-10-16T05:26:52;12.00;99.90
58339;DHT22;48278;52.704;6.536;2022-10-16T05:29:18;12.00;99.90
58339;DHT22;48278;52.704;6.536;2022-10-16T05:31:44;12.00;99.90
58339;DHT22;48278;52.704;6.536;2022-10-16T05:34:10;12.00;99.90
58339;DHT22;48278;52.704;6.536;2022-10-16T05:36:35;12.00;99.90
58339;DHT22;48278;52.704;6.536;2022-10-16T05:39:01;12.00;99.90
58339;DHT22;48278;52.704;6.536;2022-10-16T05:41:27;12.00;99.90
58339;DHT22;48278;52.704;6.536;2022-10-16T05:43:53;12.00;99.90
58339;DHT22;48278;52.704;6.536;2022-10-16T05:46:19;12.00;99.90
58339;DHT22;48278;52.704;6.536;2022-10-16T05:48:45;12.00;99.90
58339;DHT22;48278;52.704;6.536;2022-10-16T05:51:12;12.00;99.90
58339;DHT22;48278;52.704;6.536;2022-10-16T05:53:40;12.00;99.90
58339;DHT22;48278;52.704;6.536;2022-10-16T05:56:07;12.00;99.90
58339;DHT22;48278;52.704;6.536;2022-10-16T05:58:35;12.00;99.90
58339;DHT22;48278;52.704;6.536;2022-10-16T06:01:07;11.90;99.90
58339;DHT22;48278;52.704;6.536;2022-10-16T06:03:34;11.90;99.90
58339;DHT22;48278;52.704;6.536;2022-10-16T06:06:08;11.90;99.90
58339;DHT22;48278;52.704;6.536;2022-10-16T06:08:34;12.00;99.90
58339;DHT22;48278;52.704;6.536;2022-10-16T06:11:05;12.00;99.90
58339;DHT22;48278;52.704;6.536;2022-10-16T06:13:31;11.90;99.90
58339;DHT22;48278;52.704;6.536;2022-10-16T06:15:58;11.90;99.90
58339;DHT22;48278;52.704;6.536;2022-10-16T06:18:25;11.90;99.90
58339;DHT22;48278;52.704;6.536;2022-10-16T06:20:50;11.90;99.90
58339;DHT22;48278;52.704;6.536;2022-10-16T06:23:16;12.00;99.90
58339;DHT22;48278;52.704;6.536;2022-10-16T06:25:42;12.00;99.90
58339;DHT22;48278;52.704;6.536;2022-10-16T06:28:08;12.10;99.90
58339;DHT22;48278;52.704;6.536;2022-10-16T06:30:33;12.10;99.90
58339;DHT22;48278;52.704;6.536;2022-10-16T06:32:59;12.20;99.90
58339;DHT22;48278;52.704;6.536;2022-10-16T06:35:25;12.30;99.90
58339;DHT22;48278;52.704;6.536;2022-10-16T06:37:52;12.30;99.90
58339;DHT22;48278;52.704;6.536;2022-10-16T06:40:18;12.40;99.90
58339;DHT22;48278;52.704;6.536;2022-10-16T06:42:44;12.40;99.90
58339;DHT22;48278;52.704;6.536;2022-10-16T06:45:10;12.40;99.90
58339;DHT22;48278;52.704;6.536;2022-10-16T06:47:36;12.40;99.90
58339;DHT22;48278;52.704;6.536;2022-10-16T06:50:02;12.50;99.90
58339;DHT22;48278;52.704;6.536;2022-10-16T06:52:29;12.50;99.90
58339;DHT22;48278;52.704;6.536;2022-10-16T06:54:55;12.50;99.90
58339;DHT22;48278;52.704;6.536;2022-10-16T06:57:21;12.60;99.90
58339;DHT22;48278;52.704;6.536;2022-10-16T06:59:47;12.70;99.90
58339;DHT22;48278;52.704;6.536;2022-10-16T07:02:12;12.80;99.90
58339;DHT22;48278;52.704;6.536;2022-10-16T07:04:38;12.80;99.90
58339;DHT22;48278;52.704;6.536;2022-10-16T07:07:04;12.90;99.90
58339;DHT22;48278;52.704;6.536;2022-10-16T07:09:29;12.90;99.90
58339;DHT22;48278;52.704;6.536;2022-10-16T07:11:55;13.00;99.90
58339;DHT22;48278;52.704;6.536;2022-10-16T07:14:21;13.00;99.90
58339;DHT22;48278;52.704;6.536;2022-10-16T07:16:48;13.10;99.90
58339;DHT22;48278;52.704;6.536;2022-10-16T07:19:14;13.10;99.90
58339;DHT22;48278;52.704;6.536;2022-10-16T07:21:42;13.10;99.90
58339;DHT22;48278;52.704;6.536;2022-10-16T07:24:14;13.20;99.90
58339;DHT22;48278;52.704;6.536;2022-10-16T07:26:42;13.30;99.90
58339;DHT22;48278;52.704;6.536;2022-10-16T07:29:19;13.30;99.90
58339;DHT22;48278;52.704;6.536;2022-10-16T07:31:46;13.50;99.90
58339;DHT22;48278;52.704;6.536;2022-10-16T07:34:14;13.50;99.90
58339;DHT22;48278;52.704;6.536;2022-10-16T07:36:40;13.60;99.90
58339;DHT22;48278;52.704;6.536;2022-10-16T07:39:06;13.70;99.90
58339;DHT22;48278;52.704;6.536;2022-10-16T07:41:31;13.60;99.90
58339;DHT22;48278;52.704;6.536;2022-10-16T07:43:58;13.70;99.90
58339;DHT22;48278;52.704;6.536;2022-10-16T07:46:26;13.70;99.90
58339;DHT22;48278;52.704;6.536;2022-10-16T07:48:52;13.70;99.90
58339;DHT22;48278;52.704;6.536;2022-10-16T07:51:21;13.80;99.90
58339;DHT22;48278;52.704;6.536;2022-10-16T07:53:47;13.80;99.90
58339;DHT22;48278;52.704;6.536;2022-10-16T07:56:13;13.80;99.90
58339;DHT22;48278;52.704;6.536;2022-10-16T07:58:39;13.90;99.90
58339;DHT22;48278;52.704;6.536;2022-10-16T08:01:15;13.90;99.90
58339;DHT22;48278;52.704;6.536;2022-10-16T08:03:42;13.90;99.90
58339;DHT22;48278;52.704;6.536;2022-10-16T08:06:08;14.00;99.90
58339;DHT22;48278;52.704;6.536;2022-10-16T08:08:34;14.00;99.90
58339;DHT22;48278;52.704;6.536;2022-10-16T08:11:00;14.00;99.90
58339;DHT22;48278;52.704;6.536;2022-10-16T08:13:29;14.10;99.90
58339;DHT22;48278;52.704;6.536;2022-10-16T08:15:55;14.20;99.90
58339;DHT22;48278;52.704;6.536;2022-10-16T08:18:21;14.20;99.90
58339;DHT22;48278;52.704;6.536;2022-10-16T08:20:47;14.30;99.90
58339;DHT22;48278;52.704;6.536;2022-10-16T08:23:16;14.30;99.90
58339;DHT22;48278;52.704;6.536;2022-10-16T08:25:42;14.30;99.90
58339;DHT22;48278;52.704;6.536;2022-10-16T08:28:10;14.20;99.90
58339;DHT22;48278;52.704;6.536;2022-10-16T08:30:37;14.30;99.90
58339;DHT22;48278;52.704;6.536;2022-10-16T08:33:03;14.40;99.90
58339;DHT22;48278;52.704;6.536;2022-10-16T08:35:29;14.40;99.90
58339;DHT22;48278;52.704;6.536;2022-10-16T08:37:55;14.50;99.90
58339;DHT22;48278;52.704;6.536;2022-10-16T08:40:39;14.40;99.90
58339;DHT22;48278;52.704;6.536;2022-10-16T08:48:55;14.30;99.90
58339;DHT22;48278;52.704;6.536;2022-10-16T08:51:25;14.20;99.90
58339;DHT22;48278;52.704;6.536;2022-10-16T08:53:56;14.10;99.90
58339;DHT22;48278;52.704;6.536;2022-10-16T08:56:23;14.10;99.90
58339;DHT22;48278;52.704;6.536;2022-10-16T08:58:49;14.10;99.90
58339;DHT22;48278;52.704;6.536;2022-10-16T09:01:17;14.10;99.90
58339;DHT22;48278;52.704;6.536;2022-10-16T09:06:47;14.20;99.90
58339;DHT22;48278;52.704;6.536;2022-10-16T09:17:53;14.50;99.90
58339;DHT22;48278;52.704;6.536;2022-10-16T09:20:33;14.60;99.90
58339;DHT22;48278;52.704;6.536;2022-10-16T09:23:27;14.60;99.90
58339;DHT22;48278;52.704;6.536;2022-10-16T09:25:54;14.70;99.90
58339;DHT22;48278;52.704;6.536;2022-10-16T09:28:21;14.80;99.90
58339;DHT22;48278;52.704;6.536;2022-10-16T09:30:48;14.80;99.90
58339;DHT22;48278;52.704;6.536;2022-10-16T09:33:16;14.90;99.90
58339;DHT22;48278;52.704;6.536;2022-10-16T09:35:43;15.00;99.90
58339;DHT22;48278;52.704;6.536;2022-10-16T09:38:24;15.00;99.90
58339;DHT22;48278;52.704;6.536;2022-10-16T09:40:50;15.10;99.90
58339;DHT22;48278;52.704;6.536;2022-10-16T09:46:31;15.20;99.90
58339;DHT22;48278;52.704;6.536;2022-10-16T09:49:02;15.20;99.90
58339;DHT22;48278;52.704;6.536;2022-10-16T09:51:33;15.20;99.90
58339;DHT22;48278;52.704;6.536;2022-10-16T09:56:36;15.30;99.90
58339;DHT22;48278;52.704;6.536;2022-10-16T09:59:16;15.40;99.90
58339;DHT22;48278;52.704;6.536;2022-10-16T10:01:53;15.40;99.90
58339;DHT22;48278;52.704;6.536;2022-10-16T10:04:20;15.40;99.90
58339;DHT22;48278;52.704;6.536;2022-10-16T10:06:56;15.40;99.90
58339;DHT22;48278;52.704;6.536;2022-10-16T10:09:38;15.50;99.90
58339;DHT22;48278;52.704;6.536;2022-10-16T10:12:18;15.50;99.90
58339;DHT22;48278;52.704;6.536;2022-10-16T10:14:51;15.50;99.90
58339;DHT22;48278;52.704;6.536;2022-10-16T10:17:26;15.60;99.90
58339;DHT22;48278;52.704;6.536;2022-10-16T10:22:51;15.90;99.90
58339;DHT22;48278;52.704;6.536;2022-10-16T10:28:28;16.30;99.90
58339;DHT22;48278;52.704;6.536;2022-10-16T10:31:39;16.50;99.90
58339;DHT22;48278;52.704;6.536;2022-10-16T10:34:56;16.50;99.90
58339;DHT22;48278;52.704;6.536;2022-10-16T10:42:45;16.50;99.90
58339;DHT22;48278;52.704;6.536;2022-10-16T10:45:47;16.60;99.90
58339;DHT22;48278;52.704;6.536;2022-10-16T11:07:05;17.00;99.90
58339;DHT22;48278;52.704;6.536;2022-10-16T11:09:40;17.20;99.90
58339;DHT22;48278;52.704;6.536;2022-10-16T11:12:33;17.20;99.90
58339;DHT22;48278;52.704;6.536;2022-10-16T11:17:42;17.10;99.90
58339;DHT22;48278;52.704;6.536;2022-10-16T11:20:21;16.90;99.90
58339;DHT22;48278;52.704;6.536;2022-10-16T11:23:00;16.80;99.90
58339;DHT22;48278;52.704;6.536;2022-10-16T11:25:31;16.70;99.90
58339;DHT22;48278;52.704;6.536;2022-10-16T11:28:03;16.70;99.90
58339;DHT22;48278;52.704;6.536;2022-10-16T11:30:51;16.90;99.90
58339;DHT22;48278;52.704;6.536;2022-10-16T11:33:23;16.90;99.90
58339;DHT22;48278;52.704;6.536;2022-10-16T11:41:28;17.30;99.90
58339;DHT22;48278;52.704;6.536;2022-10-16T11:46:53;17.40;99.90
58339;DHT22;48278;52.704;6.536;2022-10-16T11:49:25;17.50;99.90
58339;DHT22;48278;52.704;6.536;2022-10-16T11:52:05;17.50;99.90
58339;DHT22;48278;52.704;6.536;2022-10-16T11:54:47;17.60;99.90
58339;DHT22;48278;52.704;6.536;2022-10-16T11:57:22;17.60;99.90
58339;DHT22;48278;52.704;6.536;2022-10-16T12:05:21;17.50;99.90
58339;DHT22;48278;52.704;6.536;2022-10-16T12:10:29;17.50;99.90
58339;DHT22;48278;52.704;6.536;2022-10-16T12:12:57;17.60;99.90
58339;DHT22;48278;52.704;6.536;2022-10-16T12:15:31;17.60;99.90
58339;DHT22;48278;52.704;6.536;2022-10-16T12:17:58;17.70;99.90
58339;DHT22;48278;52.704;6.536;2022-10-16T12:20:27;17.80;99.90
58339;DHT22;48278;52.704;6.536;2022-10-16T12:23:01;17.90;99.90
58339;DHT22;48278;52.704;6.536;2022-10-16T12:28:01;17.90;99.90
58339;DHT22;48278;52.704;6.536;2022-10-16T12:30:36;17.80;99.90
58339;DHT22;48278;52.704;6.536;2022-10-16T12:33:06;17.90;99.90
58339;DHT22;48278;52.704;6.536;2022-10-16T12:35:43;18.00;99.90
58339;DHT22;48278;52.704;6.536;2022-10-16T12:38:52;18.00;99.90
58339;DHT22;48278;52.704;6.536;2022-10-16T12:41:33;18.00;99.90
58339;DHT22;48278;52.704;6.536;2022-10-16T12:44:00;18.20;99.90
58339;DHT22;48278;52.704;6.536;2022-10-16T12:51:58;18.40;99.90
58339;DHT22;48278;52.704;6.536;2022-10-16T12:54:30;18.30;99.90
58339;DHT22;48278;52.704;6.536;2022-10-16T13:05:03;17.70;99.90
58339;DHT22;48278;52.704;6.536;2022-10-16T13:10:21;17.60;99.90
58339;DHT22;48278;52.704;6.536;2022-10-16T13:20:59;17.50;99.90
58339;DHT22;48278;52.704;6.536;2022-10-16T13:23:36;17.40;99.90
58339;DHT22;48278;52.704;6.536;2022-10-16T13:29:01;17.30;99.90
58339;DHT22;48278;52.704;6.536;2022-10-16T13:31:28;17.20;99.90
58339;DHT22;48278;52.704;6.536;2022-10-16T13:33:57;17.20;99.90
58339;DHT22;48278;52.704;6.536;2022-10-16T13:36:30;17.20;99.90
58339;DHT22;48278;52.704;6.536;2022-10-16T13:39:23;17.20;99.90
58339;DHT22;48278;52.704;6.536;2022-10-16T13:42:10;17.10;99.90
58339;DHT22;48278;52.704;6.536;2022-10-16T13:44:48;17.10;99.90
58339;DHT22;48278;52.704;6.536;2022-10-16T13:47:26;17.20;99.90
58339;DHT22;48278;52.704;6.536;2022-10-16T13:50:02;17.20;99.90
58339;DHT22;48278;52.704;6.536;2022-10-16T13:52:28;17.10;99.90
58339;DHT22;48278;52.704;6.536;2022-10-16T13:54:57;17.00;99.90
58339;DHT22;48278;52.704;6.536;2022-10-16T13:57:24;17.00;99.90
58339;DHT22;48278;52.704;6.536;2022-10-16T13:59:51;17.00;99.90
58339;DHT22;48278;52.704;6.536;2022-10-16T14:04:50;17.00;99.90
58339;DHT22;48278;52.704;6.536;2022-10-16T14:07:31;16.90;99.90
58339;DHT22;48278;52.704;6.536;2022-10-16T14:10:02;16.90;99.90
58339;DHT22;48278;52.704;6.536;2022-10-16T14:12:29;16.90;99.90
58339;DHT22;48278;52.704;6.536;2022-10-16T14:14:57;16.80;99.90
58339;DHT22;48278;52.704;6.536;2022-10-16T14:17:28;16.80;99.90
58339;DHT22;48278;52.704;6.536;2022-10-16T14:19:59;16.80;99.90
58339;DHT22;48278;52.704;6.536;2022-10-16T14:22:35;16.80;99.90
58339;DHT22;48278;52.704;6.536;2022-10-16T14:25:15;16.80;99.90
58339;DHT22;48278;52.704;6.536;2022-10-16T14:30:56;16.80;99.90
58339;DHT22;48278;52.704;6.536;2022-10-16T14:38:28;16.90;99.90
58339;DHT22;48278;52.704;6.536;2022-10-16T14:40:57;17.00;99.90
58339;DHT22;48278;52.704;6.536;2022-10-16T14:43:34;17.00;99.90
58339;DHT22;48278;52.704;6.536;2022-10-16T14:46:02;17.10;99.90
58339;DHT22;48278;52.704;6.536;2022-10-16T14:48:31;17.10;99.90
58339;DHT22;48278;52.704;6.536;2022-10-16T14:50:57;17.10;99.90
58339;DHT22;48278;52.704;6.536;2022-10-16T14:53:23;17.10;99.90
58339;DHT22;48278;52.704;6.536;2022-10-16T14:55:52;17.10;99.90
58339;DHT22;48278;52.704;6.536;2022-10-16T14:58:21;17.10;99.90
58339;DHT22;48278;52.704;6.536;2022-10-16T15:00:48;17.00;99.90
58339;DHT22;48278;52.704;6.536;2022-10-16T15:03:14;17.00;99.90
58339;DHT22;48278;52.704;6.536;2022-10-16T15:05:40;16.90;99.90
58339;DHT22;48278;52.704;6.536;2022-10-16T15:10:38;16.90;99.90
58339;DHT22;48278;52.704;6.536;2022-10-16T15:13:04;16.80;99.90
58339;DHT22;48278;52.704;6.536;2022-10-16T15:15:38;16.80;99.90
58339;DHT22;48278;52.704;6.536;2022-10-16T15:18:05;16.70;99.90
58339;DHT22;48278;52.704;6.536;2022-10-16T15:20:37;16.70;99.90
58339;DHT22;48278;52.704;6.536;2022-10-16T15:23:18;16.60;99.90
58339;DHT22;48278;52.704;6.536;2022-10-16T15:25:47;16.60;99.90
58339;DHT22;48278;52.704;6.536;2022-10-16T15:28:14;16.60;99.90
58339;DHT22;48278;52.704;6.536;2022-10-16T15:30:40;16.50;99.90
58339;DHT22;48278;52.704;6.536;2022-10-16T15:33:12;16.40;99.90
58339;DHT22;48278;52.704;6.536;2022-10-16T15:35:39;16.30;99.90
58339;DHT22;48278;52.704;6.536;2022-10-16T15:38:04;16.30;99.90
58339;DHT22;48278;52.704;6.536;2022-10-16T15:40:30;16.10;99.90
58339;DHT22;48278;52.704;6.536;2022-10-16T15:42:56;16.10;99.90
58339;DHT22;48278;52.704;6.536;2022-10-16T15:45:21;16.00;99.90
58339;DHT22;48278;52.704;6.536;2022-10-16T15:47:47;15.90;99.90
58339;DHT22;48278;52.704;6.536;2022-10-16T15:50:14;15.80;99.90
58339;DHT22;48278;52.704;6.536;2022-10-16T15:52:41;15.70;99.90
58339;DHT22;48278;52.704;6.536;2022-10-16T15:55:08;15.70;99.90
58339;DHT22;48278;52.704;6.536;2022-10-16T15:57:35;15.60;99.90
58339;DHT22;48278;52.704;6.536;2022-10-16T16:00:07;15.50;99.90
58339;DHT22;48278;52.704;6.536;2022-10-16T16:02:33;15.50;99.90
58339;DHT22;48278;52.704;6.536;2022-10-16T16:04:59;15.30;99.90
58339;DHT22;48278;52.704;6.536;2022-10-16T16:07:27;15.30;99.90
58339;DHT22;48278;52.704;6.536;2022-10-16T16:09:53;15.20;99.90
58339;DHT22;48278;52.704;6.536;2022-10-16T16:12:19;15.10;99.90
58339;DHT22;48278;52.704;6.536;2022-10-16T16:14:45;15.00;99.90
58339;DHT22;48278;52.704;6.536;2022-10-16T16:17:14;15.00;99.90
58339;DHT22;48278;52.704;6.536;2022-10-16T16:19:39;14.90;99.90
58339;DHT22;48278;52.704;6.536;2022-10-16T16:22:05;14.80;99.90
58339;DHT22;48278;52.704;6.536;2022-10-16T16:24:31;14.80;99.90
58339;DHT22;48278;52.704;6.536;2022-10-16T16:26:56;14.70;99.90
58339;DHT22;48278;52.704;6.536;2022-10-16T16:29:22;14.70;99.90
58339;DHT22;48278;52.704;6.536;2022-10-16T16:31:48;14.60;99.90
58339;DHT22;48278;52.704;6.536;2022-10-16T16:34:14;14.50;99.90
58339;DHT22;48278;52.704;6.536;2022-10-16T16:36:40;14.40;99.90
58339;DHT22;48278;52.704;6.536;2022-10-16T16:39:07;14.40;99.90
58339;DHT22;48278;52.704;6.536;2022-10-16T16:41:33;14.30;99.90
58339;DHT22;48278;52.704;6.536;2022-10-16T16:44:04;14.30;99.90
58339;DHT22;48278;52.704;6.536;2022-10-16T16:46:32;14.30;99.90
58339;DHT22;48278;52.704;6.536;2022-10-16T16:48:58;14.30;99.90
58339;DHT22;48278;52.704;6.536;2022-10-16T16:51:24;14.20;99.90
58339;DHT22;48278;52.704;6.536;2022-10-16T16:53:52;14.10;99.90
58339;DHT22;48278;52.704;6.536;2022-10-16T16:56:20;14.10;99.90
58339;DHT22;48278;52.704;6.536;2022-10-16T16:58:48;14.10;99.90
58339;DHT22;48278;52.704;6.536;2022-10-16T17:01:14;14.00;99.90
58339;DHT22;48278;52.704;6.536;2022-10-16T17:03:42;14.00;99.90
58339;DHT22;48278;52.704;6.536;2022-10-16T17:06:12;13.90;99.90
58339;DHT22;48278;52.704;6.536;2022-10-16T17:08:40;13.90;99.90
58339;DHT22;48278;52.704;6.536;2022-10-16T17:11:11;13.80;99.90
58339;DHT22;48278;52.704;6.536;2022-10-16T17:13:36;13.70;99.90
58339;DHT22;48278;52.704;6.536;2022-10-16T17:16:04;13.70;99.90
58339;DHT22;48278;52.704;6.536;2022-10-16T17:18:31;13.60;99.90
58339;DHT22;48278;52.704;6.536;2022-10-16T17:21:02;13.50;99.90
58339;DHT22;48278;52.704;6.536;2022-10-16T17:23:28;13.40;99.90
58339;DHT22;48278;52.704;6.536;2022-10-16T17:25:54;13.40;99.90
58339;DHT22;48278;52.704;6.536;2022-10-16T17:28:20;13.30;99.90
58339;DHT22;48278;52.704;6.536;2022-10-16T17:30:46;13.30;99.90
58339;DHT22;48278;52.704;6.536;2022-10-16T17:33:12;13.20;99.90
58339;DHT22;48278;52.704;6.536;2022-10-16T17:38:22;13.10;99.90
58339;DHT22;48278;52.704;6.536;2022-10-16T17:40:48;13.10;99.90
58339;DHT22;48278;52.704;6.536;2022-10-16T17:43:14;13.00;99.90
58339;DHT22;48278;52.704;6.536;2022-10-16T17:45:39;13.00;99.90
58339;DHT22;48278;52.704;6.536;2022-10-16T17:48:05;12.90;99.90
58339;DHT22;48278;52.704;6.536;2022-10-16T17:50:39;12.90;99.90
58339;DHT22;48278;52.704;6.536;2022-10-16T17:53:04;13.00;99.90
58339;DHT22;48278;52.704;6.536;2022-10-16T17:55:30;12.80;99.90
58339;DHT22;48278;52.704;6.536;2022-10-16T17:57:56;12.80;99.90
58339;DHT22;48278;52.704;6.536;2022-10-16T18:00:22;12.80;99.90